Adel, Iowa
Current Conditions -  °F | °C
As of 12:55 PM on Thursday 23 Oct 2014 (Local Time) from KPRO Reporting Station
Scattered Clouds Scattered Clouds  
Wind Chill: 20°   Ceiling: Unl
Heat Index: 20°   Visibility: 10mi
Dew Point: 13°   Wind: 6mph
Humidity: 65%   Direction: 290°WNW
Pressure: 30.04"   Gusts: NA
Location:  41.61°N, 94.02°W
Report Text: KPRO 231755Z AUTO 29005KT 10SM SCT022 20/13 A3004 RMK AO2 T01960128 10199 20122
Loading
Personal Weather Stations






























Interactive Weather Map
Tropical Storm Tracking
New forecast layout! Learn more

10-Day Weather Forecast

Advertisements
Track Severe Weather on mobile